Time;durP1;ratioP1;P1;durP2;ratioP2;P2;SDS_P1;SDS_P2;PMS_P1;PMS_P2;Temp;Humidity;BMP_temperature;BMP_pressure;BME280_temperature;BME280_humidity;BME280_pressure;Samples;Min_cycle;Max_cycle;Signal;HPM_P1;HPM_P2
2022/08/07 00:01:32;;;;;;;9.98;3.55;;;;;;;;;;5104245;28;20055;-45
2022/08/07 00:03:57;;;;;;;4.90;3.58;;;;;;;;;;5107373;28;20108;-45
2022/08/07 00:06:22;;;;;;;4.03;2.72;;;;;;;;;;5107303;28;20043;-45
2022/08/07 00:08:47;;;;;;;4.10;3.08;;;;;;;;;;5107226;28;20047;-44
2022/08/07 00:11:13;;;;;;;10.63;3.35;;;;;;;;;;5107544;28;20509;-48
2022/08/07 00:13:39;;;;;;;5.68;3.92;;;;;;;;;;5107764;28;20063;-45
2022/08/07 00:16:04;;;;;;;4.78;3.30;;;;;;;;;;5107697;28;20054;-46
2022/08/07 00:18:29;;;;;;;5.90;3.25;;;;;;;;;;5106073;28;20446;-44
2022/08/07 00:20:56;;;;;;;3.58;3.15;;;;;;;;;;5106149;28;20036;-44
2022/08/07 00:23:22;;;;;;;4.68;3.72;;;;;;;;;;5107192;28;20054;-45
2022/08/07 00:25:47;;;;;;;4.38;3.50;;;;;;;;;;5104105;28;20043;-47
2022/08/07 00:28:13;;;;;;;4.95;3.08;;;;;;;;;;5104834;28;20621;-45
2022/08/07 00:30:38;;;;;;;3.38;2.40;;;;;;;;;;5105967;28;20043;-45
2022/08/07 00:33:03;;;;;;;5.28;3.72;;;;;;;;;;5106880;28;20697;-47
2022/08/07 00:35:29;;;;;;;6.53;2.55;;;;;;;;;;5103190;28;20042;-47
2022/08/07 00:37:54;;;;;;;2.60;1.98;;;;;;;;;;5106397;28;20461;-43
2022/08/07 00:40:20;;;;;;;13.70;3.33;;;;;;;;;;5104408;28;20044;-45
2022/08/07 00:42:45;;;;;;;5.40;2.03;;;;;;;;;;5105671;28;20067;-45
2022/08/07 00:45:11;;;;;;;6.30;4.88;;;;;;;;;;5106752;28;20539;-46
2022/08/07 00:47:36;;;;;;;5.55;3.25;;;;;;;;;;5105973;28;20042;-47
2022/08/07 00:50:02;;;;;;;7.20;3.55;;;;;;;;;;5106666;28;20066;-47
2022/08/07 00:52:27;;;;;;;6.18;4.28;;;;;;;;;;5105856;28;20443;-50
2022/08/07 00:54:53;;;;;;;4.57;3.97;;;;;;;;;;5106527;28;20095;-46
2022/08/07 00:57:20;;;;;;;6.90;3.70;;;;;;;;;;5106601;28;20414;-44
2022/08/07 00:59:46;;;;;;;4.80;2.78;;;;;;;;;;5104500;28;20080;-47
2022/08/07 01:02:11;;;;;;;16.48;3.55;;;;;;;;;;5106331;28;20078;-48
2022/08/07 01:04:37;;;;;;;9.32;3.00;;;;;;;;;;5105986;28;20109;-45
2022/08/07 01:07:02;;;;;;;5.80;3.35;;;;;;;;;;5106100;28;20662;-44
2022/08/07 01:09:28;;;;;;;4.45;3.22;;;;;;;;;;5106321;28;20035;-46
2022/08/07 01:11:54;;;;;;;6.82;3.00;;;;;;;;;;5105775;28;20051;-46
2022/08/07 01:14:20;;;;;;;4.20;3.20;;;;;;;;;;5106623;28;20040;-47
2022/08/07 01:16:45;;;;;;;11.65;4.30;;;;;;;;;;5106141;28;20051;-46
2022/08/07 01:19:11;;;;;;;3.70;3.20;;;;;;;;;;5101276;28;20054;-43
2022/08/07 01:21:36;;;;;;;5.68;3.35;;;;;;;;;;5103882;28;20039;-44
2022/08/07 01:24:02;;;;;;;5.47;2.30;;;;;;;;;;5106305;28;20043;-45
2022/08/07 01:26:27;;;;;;;5.25;4.13;;;;;;;;;;5106055;28;20051;-48
2022/08/07 01:28:53;;;;;;;4.53;2.63;;;;;;;;;;5106403;28;20508;-46
2022/08/07 01:31:19;;;;;;;5.68;2.95;;;;;;;;;;5105804;28;20502;-43
2022/08/07 01:33:45;;;;;;;6.63;3.58;;;;;;;;;;5106030;28;20055;-47
2022/08/07 01:36:11;;;;;;;6.95;4.05;;;;;;;;;;5105225;28;20059;-45
2022/08/07 01:38:37;;;;;;;3.60;2.95;;;;;;;;;;5108619;28;20056;-44
2022/08/07 01:41:03;;;;;;;4.15;3.22;;;;;;;;;;5109311;28;20079;-46
2022/08/07 01:43:29;;;;;;;4.10;3.05;;;;;;;;;;5110256;28;20120;-46
2022/08/07 01:45:55;;;;;;;8.93;4.28;;;;;;;;;;5110228;28;20044;-46
2022/08/07 01:48:21;;;;;;;3.50;3.00;;;;;;;;;;5110502;28;20043;-45
2022/08/07 01:50:49;;;;;;;3.42;2.72;;;;;;;;;;5110068;28;20380;-45
2022/08/07 01:53:15;;;;;;;6.60;3.88;;;;;;;;;;5108349;28;20101;-45
2022/08/07 01:55:54;;;;;;;4.40;3.08;;;;;;;;;;5109682;28;20051;-44
2022/08/07 01:58:20;;;;;;;6.43;4.35;;;;;;;;;;5109288;28;20047;-46
2022/08/07 02:00:48;;;;;;;5.05;2.70;;;;;;;;;;5109242;28;20043;-45
2022/08/07 02:03:14;;;;;;;4.53;3.08;;;;;;;;;;5110191;28;20050;-47
2022/08/07 02:05:46;;;;;;;4.72;4.22;;;;;;;;;;5109829;28;20048;-46
2022/08/07 02:08:13;;;;;;;5.25;3.78;;;;;;;;;;5108738;28;20036;-43
2022/08/07 02:10:40;;;;;;;6.40;3.95;;;;;;;;;;5108301;28;20046;-46
2022/08/07 02:13:06;;;;;;;5.75;3.72;;;;;;;;;;5108993;28;20038;-44
2022/08/07 02:15:32;;;;;;;11.07;3.90;;;;;;;;;;5107363;28;20032;-46
2022/08/07 02:17:59;;;;;;;4.95;3.83;;;;;;;;;;5106694;28;20027;-47
2022/08/07 02:20:24;;;;;;;6.85;2.58;;;;;;;;;;5088965;28;20048;-49
2022/08/07 02:22:58;;;;;;;5.82;3.42;;;;;;;;;;5108604;28;20040;-45
2022/08/07 02:25:24;;;;;;;6.38;3.30;;;;;;;;;;5109630;28;20040;-47
2022/08/07 02:27:50;;;;;;;7.07;4.28;;;;;;;;;;5084084;28;20048;-43
2022/08/07 02:30:16;;;;;;;5.85;3.35;;;;;;;;;;5107332;28;20044;-45
2022/08/07 02:32:42;;;;;;;4.68;3.45;;;;;;;;;;5109036;28;20100;-47
2022/08/07 02:35:09;;;;;;;6.20;3.40;;;;;;;;;;5108887;28;20055;-48
2022/08/07 02:37:36;;;;;;;4.28;3.58;;;;;;;;;;5107251;28;20065;-45
2022/08/07 02:40:03;;;;;;;7.88;2.67;;;;;;;;;;5106248;28;20055;-45
2022/08/07 02:42:29;;;;;;;3.05;2.67;;;;;;;;;;5108575;28;20040;-49
2022/08/07 02:44:55;;;;;;;4.18;3.22;;;;;;;;;;5108861;28;20039;-46
2022/08/07 02:47:20;;;;;;;4.90;2.97;;;;;;;;;;5106054;28;20092;-48
2022/08/07 02:49:46;;;;;;;3.92;2.95;;;;;;;;;;5108279;28;20056;-45
2022/08/07 02:52:14;;;;;;;3.33;2.78;;;;;;;;;;5105273;28;20417;-45
2022/08/07 02:54:41;;;;;;;8.13;2.92;;;;;;;;;;5108384;28;20557;-45
2022/08/07 02:57:08;;;;;;;4.70;2.53;;;;;;;;;;5108609;28;20051;-44
2022/08/07 02:59:34;;;;;;;21.10;19.33;;;;;;;;;;5107482;28;20438;-46
2022/08/07 03:02:00;;;;;;;10.13;9.13;;;;;;;;;;5108066;28;20054;-48
2022/08/07 03:04:26;;;;;;;12.68;5.15;;;;;;;;;;5105999;28;20043;-47
2022/08/07 03:06:52;;;;;;;4.45;4.00;;;;;;;;;;5108606;28;20583;-47
2022/08/07 03:09:18;;;;;;;4.80;3.83;;;;;;;;;;5108756;28;20126;-45
2022/08/07 03:11:44;;;;;;;4.82;3.30;;;;;;;;;;5108552;28;20079;-45
2022/08/07 03:14:10;;;;;;;4.00;3.60;;;;;;;;;;5108266;28;20067;-42
2022/08/07 03:16:35;;;;;;;8.32;3.13;;;;;;;;;;5108937;28;20403;-48
2022/08/07 03:19:01;;;;;;;9.30;3.40;;;;;;;;;;5109186;28;20051;-43
2022/08/07 03:21:26;;;;;;;2.63;2.13;;;;;;;;;;5108160;28;20882;-43
2022/08/07 03:23:56;;;;;;;4.18;2.70;;;;;;;;;;5106386;28;20661;-46
2022/08/07 03:26:23;;;;;;;3.92;2.97;;;;;;;;;;5107658;28;20050;-43
2022/08/07 03:28:49;;;;;;;3.90;2.63;;;;;;;;;;5107301;28;20040;-43
2022/08/07 03:31:17;;;;;;;2.95;2.42;;;;;;;;;;5107472;28;20036;-42
2022/08/07 03:33:44;;;;;;;4.60;3.25;;;;;;;;;;5107174;28;20047;-43
2022/08/07 03:36:10;;;;;;;4.03;2.33;;;;;;;;;;5106345;28;20067;-46
2022/08/07 03:38:37;;;;;;;3.20;2.63;;;;;;;;;;5107865;28;20166;-42
2022/08/07 03:41:02;;;;;;;5.53;2.80;;;;;;;;;;5104362;28;20107;-43
2022/08/07 03:43:28;;;;;;;3.92;2.40;;;;;;;;;;5107435;28;20044;-48
2022/08/07 03:45:53;;;;;;;2.63;1.95;;;;;;;;;;5105114;28;20533;-43
2022/08/07 03:48:19;;;;;;;3.53;2.35;;;;;;;;;;5106068;28;20051;-45
2022/08/07 03:50:45;;;;;;;3.33;2.25;;;;;;;;;;5105576;28;20127;-45
2022/08/07 03:53:11;;;;;;;11.52;2.42;;;;;;;;;;5106919;28;20039;-43
2022/08/07 03:55:37;;;;;;;4.55;1.95;;;;;;;;;;5106649;28;20050;-43
2022/08/07 03:58:02;;;;;;;2.60;1.67;;;;;;;;;;5107786;28;20039;-49
2022/08/07 04:00:29;;;;;;;7.07;2.80;;;;;;;;;;5107485;28;20051;-44
2022/08/07 04:02:54;;;;;;;3.40;2.13;;;;;;;;;;5107122;28;20051;-45
2022/08/07 04:05:20;;;;;;;6.35;2.50;;;;;;;;;;5105993;28;20052;-45
2022/08/07 04:07:46;;;;;;;8.40;2.80;;;;;;;;;;5107683;28;20076;-44
2022/08/07 04:10:11;;;;;;;4.38;3.25;;;;;;;;;;5105683;28;20071;-46
2022/08/07 04:12:37;;;;;;;16.20;3.28;;;;;;;;;;5105667;28;20073;-43
2022/08/07 04:15:03;;;;;;;5.40;3.08;;;;;;;;;;5104219;28;20043;-44
2022/08/07 04:17:28;;;;;;;3.95;2.05;;;;;;;;;;5085748;28;20484;-44
2022/08/07 04:19:53;;;;;;;3.15;2.13;;;;;;;;;;5105144;28;20043;-45
2022/08/07 04:22:20;;;;;;;4.00;2.15;;;;;;;;;;5101897;28;20388;-46
2022/08/07 04:24:47;;;;;;;2.97;2.20;;;;;;;;;;5106762;28;20055;-46
2022/08/07 04:27:12;;;;;;;1.92;1.52;;;;;;;;;;5104764;28;20578;-45
2022/08/07 04:29:37;;;;;;;3.25;1.83;;;;;;;;;;5106852;28;20047;-43
2022/08/07 04:32:03;;;;;;;4.30;2.92;;;;;;;;;;5106574;28;20047;-44
2022/08/07 04:34:29;;;;;;;5.95;3.15;;;;;;;;;;5106188;28;20052;-45
2022/08/07 04:36:54;;;;;;;15.70;3.13;;;;;;;;;;5107056;28;20039;-43
2022/08/07 04:39:19;;;;;;;9.43;3.30;;;;;;;;;;5106023;28;20046;-44
2022/08/07 04:41:45;;;;;;;3.38;2.80;;;;;;;;;;5106231;28;20064;-44
2022/08/07 04:44:10;;;;;;;3.47;2.75;;;;;;;;;;5106078;28;20467;-44
2022/08/07 04:46:35;;;;;;;4.10;2.00;;;;;;;;;;5106305;28;20556;-44
2022/08/07 04:49:13;;;;;;;4.10;2.65;;;;;;;;;;5105740;28;20035;-45
2022/08/07 04:51:54;;;;;;;3.80;2.67;;;;;;;;;;5106792;28;20070;-43
2022/08/07 04:54:19;;;;;;;;;;;;;;;;;;5106889;28;20092;-43
2022/08/07 04:57:02;;;;;;;4.10;3.10;;;;;;;;;;5106236;28;19907;-44
2022/08/07 04:59:54;;;;;;;4.93;3.33;;;;;;;;;;5105004;28;20048;-43
2022/08/07 05:02:29;;;;;;;5.25;2.50;;;;;;;;;;5106274;28;20135;-46
2022/08/07 05:05:01;;;;;;;12.15;2.60;;;;;;;;;;5105530;28;20036;-47
2022/08/07 05:07:32;;;;;;;8.07;3.13;;;;;;;;;;5104968;28;20542;-43
2022/08/07 05:10:01;;;;;;;2.97;2.70;;;;;;;;;;5105259;28;20043;-48
2022/08/07 05:12:33;;;;;;;5.10;3.53;;;;;;;;;;5108074;28;20130;-43
2022/08/07 05:15:14;;;;;;;3.80;3.42;;;;;;;;;;5110391;28;20048;-43
2022/08/07 05:17:42;;;;;;;7.65;4.30;;;;;;;;;;5110091;28;20051;-43
2022/08/07 05:20:08;;;;;;;7.10;2.92;;;;;;;;;;5110060;28;20078;-47
2022/08/07 05:22:34;;;;;;;4.63;2.83;;;;;;;;;;5108405;28;20396;-48
2022/08/07 05:25:00;;;;;;;4.22;3.33;;;;;;;;;;5110134;28;20043;-45
2022/08/07 05:27:26;;;;;;;4.32;2.60;;;;;;;;;;5107277;28;20043;-46
2022/08/07 05:29:52;;;;;;;3.38;2.55;;;;;;;;;;5108097;28;20031;-43
2022/08/07 05:32:17;;;;;;;4.28;2.72;;;;;;;;;;5107743;28;20529;-45
2022/08/07 05:34:44;;;;;;;2.58;1.80;;;;;;;;;;5109705;28;20051;-44
2022/08/07 05:37:12;;;;;;;2.97;2.67;;;;;;;;;;5110453;28;20198;-43
2022/08/07 05:39:38;;;;;;;6.88;2.95;;;;;;;;;;5108253;28;20046;-42
2022/08/07 05:42:03;;;;;;;4.40;2.90;;;;;;;;;;5106556;28;20090;-44
2022/08/07 05:44:29;;;;;;;7.13;3.47;;;;;;;;;;5108156;28;20070;-44
2022/08/07 05:46:55;;;;;;;3.22;2.47;;;;;;;;;;5110266;28;20125;-45
2022/08/07 05:49:21;;;;;;;9.68;3.13;;;;;;;;;;5109412;28;20074;-44
2022/08/07 05:51:46;;;;;;;9.23;3.38;;;;;;;;;;5110149;28;20698;-44
2022/08/07 05:54:12;;;;;;;5.13;3.35;;;;;;;;;;5109026;28;20507;-46
2022/08/07 05:56:41;;;;;;;4.03;2.78;;;;;;;;;;5109523;28;20059;-47
2022/08/07 05:59:12;;;;;;;4.55;3.30;;;;;;;;;;5109607;28;20108;-49
2022/08/07 06:01:37;;;;;;;;;;;;;;;;;;5109080;28;20058;-45
2022/08/07 06:04:03;;;;;;;6.53;3.97;;;;;;;;;;5104045;28;19912;-44
2022/08/07 06:06:28;;;;;;;5.80;2.58;;;;;;;;;;5108684;28;20052;-47
2022/08/07 06:08:53;;;;;;;8.60;4.63;;;;;;;;;;5108780;28;20028;-47
2022/08/07 06:11:19;;;;;;;4.20;3.13;;;;;;;;;;5106895;28;20055;-44
2022/08/07 06:13:44;;;;;;;9.18;4.25;;;;;;;;;;5108351;28;20048;-44
2022/08/07 06:16:09;;;;;;;5.20;4.18;;;;;;;;;;5106413;28;20108;-44
2022/08/07 06:18:35;;;;;;;11.25;4.03;;;;;;;;;;5105784;28;20051;-45
2022/08/07 06:21:01;;;;;;;5.47;3.75;;;;;;;;;;5108211;28;20031;-45
2022/08/07 06:23:27;;;;;;;6.47;4.38;;;;;;;;;;5106734;28;20051;-46
2022/08/07 06:25:52;;;;;;;7.55;4.75;;;;;;;;;;5108275;28;20130;-45
2022/08/07 06:28:17;;;;;;;5.43;3.50;;;;;;;;;;5108284;28;20533;-48
2022/08/07 06:30:43;;;;;;;3.35;2.38;;;;;;;;;;5108468;28;20508;-47
2022/08/07 06:33:08;;;;;;;4.20;3.80;;;;;;;;;;5107619;28;20126;-45
2022/08/07 06:35:34;;;;;;;4.25;3.85;;;;;;;;;;5107512;28;20032;-49
2022/08/07 06:38:00;;;;;;;4.43;3.80;;;;;;;;;;5105506;28;20039;-45
2022/08/07 06:40:27;;;;;;;5.97;3.33;;;;;;;;;;5106733;28;20038;-47
2022/08/07 06:42:52;;;;;;;10.77;3.85;;;;;;;;;;5107354;28;20487;-45
2022/08/07 06:45:19;;;;;;;8.77;3.88;;;;;;;;;;5106938;28;20036;-44
2022/08/07 06:47:45;;;;;;;4.22;2.33;;;;;;;;;;5104139;28;20138;-47
2022/08/07 06:50:11;;;;;;;3.90;2.05;;;;;;;;;;5107033;28;20147;-45
2022/08/07 06:52:38;;;;;;;4.93;2.55;;;;;;;;;;5106522;28;20109;-46
2022/08/07 06:55:18;;;;;;;3.53;2.13;;;;;;;;;;5105928;28;20123;-47
2022/08/07 06:57:44;;;;;;;4.78;2.35;;;;;;;;;;5104787;28;20139;-51
2022/08/07 07:00:10;;;;;;;3.03;2.28;;;;;;;;;;5107537;28;20101;-44
2022/08/07 07:02:35;;;;;;;5.32;3.53;;;;;;;;;;5107994;28;20474;-46
2022/08/07 07:05:01;;;;;;;5.70;3.00;;;;;;;;;;5107013;28;20039;-49
2022/08/07 07:07:26;;;;;;;5.30;2.75;;;;;;;;;;5107634;28;20039;-48
2022/08/07 07:09:52;;;;;;;3.35;2.95;;;;;;;;;;5106241;28;20081;-44
2022/08/07 07:12:23;;;;;;;15.40;3.00;;;;;;;;;;5107490;28;20130;-50
2022/08/07 07:15:14;;;;;;;3.83;2.88;;;;;;;;;;5106065;28;20541;-45
2022/08/07 07:17:39;;;;;;;2.75;2.08;;;;;;;;;;5104911;28;20071;-47
2022/08/07 07:20:10;;;;;;;1.75;1.40;;;;;;;;;;5105547;28;20140;-46
2022/08/07 07:22:36;;;;;;;0.95;0.52;;;;;;;;;;5104377;28;20044;-44
2022/08/07 07:25:03;;;;;;;1.55;1.08;;;;;;;;;;5106607;28;20521;-45
2022/08/07 07:27:29;;;;;;;6.03;3.92;;;;;;;;;;5102623;28;20052;-44
2022/08/07 07:29:57;;;;;;;8.27;4.75;;;;;;;;;;5105691;28;20069;-47
2022/08/07 07:32:23;;;;;;;7.47;3.63;;;;;;;;;;5106349;28;20051;-47
2022/08/07 07:34:51;;;;;;;7.65;3.60;;;;;;;;;;5104223;28;20043;-47
2022/08/07 07:37:17;;;;;;;2.22;1.63;;;;;;;;;;5106881;28;20050;-47
2022/08/07 07:39:44;;;;;;;7.28;2.67;;;;;;;;;;5104965;28;20044;-47
2022/08/07 07:42:10;;;;;;;4.25;3.75;;;;;;;;;;5106231;28;20103;-43
2022/08/07 07:44:38;;;;;;;8.40;4.57;;;;;;;;;;5105661;28;20055;-44
2022/08/07 07:47:05;;;;;;;5.15;4.22;;;;;;;;;;5105973;28;20039;-46
2022/08/07 07:49:33;;;;;;;6.85;2.13;;;;;;;;;;5104471;28;20407;-46
2022/08/07 07:51:59;;;;;;;9.82;3.75;;;;;;;;;;5105540;28;20134;-44
2022/08/07 07:54:25;;;;;;;2.17;1.20;;;;;;;;;;5104256;28;20642;-43
2022/08/07 07:56:51;;;;;;;4.40;1.90;;;;;;;;;;5107228;28;20089;-47
2022/08/07 07:59:18;;;;;;;2.22;1.15;;;;;;;;;;5105971;28;20055;-44
2022/08/07 08:01:45;;;;;;;7.32;1.85;;;;;;;;;;5101710;28;20048;-49
2022/08/07 08:04:11;;;;;;;4.07;1.95;;;;;;;;;;5104386;28;20142;-44
2022/08/07 08:06:38;;;;;;;2.83;1.80;;;;;;;;;;5104095;28;20043;-46
2022/08/07 08:09:04;;;;;;;11.02;1.55;;;;;;;;;;5106396;28;20570;-45
2022/08/07 08:11:30;;;;;;;5.05;2.25;;;;;;;;;;5103463;28;20043;-47
2022/08/07 08:13:55;;;;;;;2.72;2.10;;;;;;;;;;5105897;28;20089;-44
2022/08/07 08:16:41;;;;;;;2.75;2.30;;;;;;;;;;5087416;28;20039;-45
2022/08/07 08:19:08;;;;;;;2.20;1.60;;;;;;;;;;5103003;28;20105;-49
2022/08/07 08:27:07;;;;;;;2.47;2.00;;;;;;;;;;5103627;28;20042;-48
2022/08/07 08:29:39;;;;;;;3.67;2.03;;;;;;;;;;5104413;28;20066;-43
2022/08/07 08:32:05;;;;;;;3.05;1.65;;;;;;;;;;5104903;28;20550;-48
2022/08/07 08:34:31;;;;;;;2.97;1.33;;;;;;;;;;5103373;28;20051;-42
2022/08/07 08:36:57;;;;;;;6.00;1.40;;;;;;;;;;5104789;28;20077;-43
2022/08/07 08:39:23;;;;;;;4.53;2.15;;;;;;;;;;5104722;28;20050;-46
2022/08/07 08:41:52;;;;;;;3.17;1.55;;;;;;;;;;5105447;28;20477;-41
2022/08/07 08:44:25;;;;;;;5.20;1.90;;;;;;;;;;5105160;28;20123;-44
2022/08/07 08:47:14;;;;;;;4.80;1.17;;;;;;;;;;5102701;28;20036;-46
2022/08/07 08:49:49;;;;;;;2.75;1.75;;;;;;;;;;5072248;28;20122;-44
2022/08/07 08:52:20;;;;;;;1.13;0.60;;;;;;;;;;5101949;28;20079;-50
2022/08/07 08:54:52;;;;;;;3.95;1.65;;;;;;;;;;5104511;28;20039;-50
2022/08/07 08:57:46;;;;;;;4.55;1.88;;;;;;;;;;5103431;28;20054;-52
2022/08/07 09:00:12;;;;;;;4.38;1.40;;;;;;;;;;5011774;28;20193;-48
2022/08/07 09:02:38;;;;;;;4.53;1.67;;;;;;;;;;5103081;28;20064;-44
2022/08/07 09:05:21;;;;;;;5.10;1.98;;;;;;;;;;5102926;28;20044;-47
2022/08/07 09:07:52;;;;;;;3.35;1.40;;;;;;;;;;5104499;28;20048;-47
2022/08/07 09:10:23;;;;;;;1.90;1.10;;;;;;;;;;5103503;28;20039;-47
2022/08/07 09:12:48;;;;;;;2.63;1.33;;;;;;;;;;5103931;28;20044;-46
2022/08/07 09:15:20;;;;;;;6.43;3.67;;;;;;;;;;5105063;28;20379;-48
2022/08/07 09:17:52;;;;;;;2.47;1.70;;;;;;;;;;5104726;28;20040;-44
2022/08/07 09:20:20;;;;;;;2.50;0.90;;;;;;;;;;5104027;28;20553;-48
2022/08/07 09:22:53;;;;;;;1.55;1.20;;;;;;;;;;5103528;28;20035;-48
2022/08/07 09:25:18;;;;;;;1.30;1.05;;;;;;;;;;5103319;28;20036;-46
2022/08/07 09:27:43;;;;;;;2.83;1.10;;;;;;;;;;5103159;28;20091;-46
2022/08/07 09:30:10;;;;;;;2.55;1.38;;;;;;;;;;5105008;28;20032;-48
2022/08/07 09:32:47;;;;;;;1.65;1.30;;;;;;;;;;5104719;28;20511;-46
2022/08/07 09:35:25;;;;;;;2.35;1.45;;;;;;;;;;5104558;28;20055;-46
2022/08/07 09:37:53;;;;;;;1.55;1.27;;;;;;;;;;5103804;28;20044;-46
2022/08/07 09:40:54;;;;;;;3.28;1.55;;;;;;;;;;5102666;28;20075;-46
2022/08/07 09:43:20;;;;;;;2.60;1.88;;;;;;;;;;5019135;28;20067;-48
2022/08/07 09:45:48;;;;;;;2.80;1.73;;;;;;;;;;5087598;28;20039;-49
2022/08/07 09:48:25;;;;;;;2.50;1.15;;;;;;;;;;5102417;28;20116;-47
2022/08/07 09:51:09;;;;;;;1.20;0.90;;;;;;;;;;5104460;28;20100;-44
2022/08/07 09:53:41;;;;;;;2.22;1.48;;;;;;;;;;5103306;28;20064;-49
2022/08/07 09:56:36;;;;;;;3.47;2.40;;;;;;;;;;5104374;28;20070;-50
2022/08/07 09:59:13;;;;;;;2.33;1.00;;;;;;;;;;5015041;28;20369;-49
2022/08/07 10:01:51;;;;;;;3.17;1.73;;;;;;;;;;5104807;28;20047;-45
2022/08/07 10:04:22;;;;;;;5.10;1.50;;;;;;;;;;5105901;28;20095;-44
2022/08/07 10:06:57;;;;;;;2.15;1.33;;;;;;;;;;5107014;28;20625;-51
2022/08/07 10:09:25;;;;;;;1.88;1.42;;;;;;;;;;5106674;28;20495;-43
2022/08/07 10:11:54;;;;;;;5.35;1.42;;;;;;;;;;5106343;28;20048;-49
2022/08/07 10:14:19;;;;;;;6.07;3.03;;;;;;;;;;5106925;28;20036;-44
2022/08/07 10:17:05;;;;;;;3.37;1.80;;;;;;;;;;5108637;28;20109;-44
2022/08/07 10:19:49;;;;;;;1.45;0.52;;;;;;;;;;5106194;28;20268;-48
2022/08/07 10:22:26;;;;;;;1.35;1.08;;;;;;;;;;5106714;28;20408;-46
2022/08/07 10:24:54;;;;;;;2.83;1.92;;;;;;;;;;5104376;28;20034;-46
2022/08/07 10:27:20;;;;;;;2.90;1.30;;;;;;;;;;5107267;28;20213;-45
2022/08/07 10:29:54;;;;;;;3.00;2.28;;;;;;;;;;5106389;28;20465;-43
2022/08/07 10:32:25;;;;;;;3.20;2.33;;;;;;;;;;5103542;28;20032;-49
2022/08/07 10:35:00;;;;;;;1.33;0.60;;;;;;;;;;5104531;28;20110;-48
2022/08/07 10:37:25;;;;;;;2.90;1.42;;;;;;;;;;5106100;28;20058;-47
2022/08/07 10:40:03;;;;;;;2.83;1.73;;;;;;;;;;5105294;28;20044;-44
2022/08/07 10:42:47;;;;;;;1.88;1.15;;;;;;;;;;5106432;28;20138;-44
2022/08/07 10:45:27;;;;;;;3.92;1.05;;;;;;;;;;5106112;28;20659;-44
2022/08/07 10:48:11;;;;;;;2.80;1.65;;;;;;;;;;5106950;28;20043;-44
2022/08/07 10:50:41;;;;;;;3.05;0.68;;;;;;;;;;5107004;28;20036;-43
2022/08/07 10:53:06;;;;;;;;;;;;;;;;;;5107704;28;20339;-46
2022/08/07 10:55:41;;;;;;;6.13;1.00;;;;;;;;;;5105796;28;20513;-46
2022/08/07 10:58:16;;;;;;;3.42;2.15;;;;;;;;;;5106455;28;20101;-47
2022/08/07 11:00:44;;;;;;;2.42;1.80;;;;;;;;;;5106457;28;20122;-49
2022/08/07 11:03:14;;;;;;;4.68;1.55;;;;;;;;;;5105316;28;20043;-48
2022/08/07 11:05:55;;;;;;;2.55;0.98;;;;;;;;;;5106746;28;20043;-47
2022/08/07 11:08:44;;;;;;;1.85;1.27;;;;;;;;;;5105163;28;20036;-48
2022/08/07 11:11:21;;;;;;;0.90;0.60;;;;;;;;;;5105538;28;20043;-48
2022/08/07 11:13:52;;;;;;;3.05;1.38;;;;;;;;;;5106676;28;20043;-46
2022/08/07 11:16:35;;;;;;;5.57;1.70;;;;;;;;;;5107122;28;20055;-45
2022/08/07 11:19:01;;;;;;;1.98;1.20;;;;;;;;;;5104023;28;20094;-48
2022/08/07 11:21:26;;;;;;;1.15;0.57;;;;;;;;;;5106031;28;20731;-46
2022/08/07 11:23:51;;;;;;;7.18;3.05;;;;;;;;;;5108038;28;20048;-48
2022/08/07 11:26:25;;;;;;;4.60;0.80;;;;;;;;;;5106826;28;20140;-47
2022/08/07 11:28:57;;;;;;;1.35;1.00;;;;;;;;;;5105532;28;20321;-46
2022/08/07 11:31:22;;;;;;;1.73;1.30;;;;;;;;;;5107561;28;20073;-47
2022/08/07 11:34:01;;;;;;;3.57;2.47;;;;;;;;;;5106099;28;20573;-47
2022/08/07 11:36:27;;;;;;;2.47;1.23;;;;;;;;;;5103533;28;20349;-44
2022/08/07 11:39:07;;;;;;;3.88;0.60;;;;;;;;;;5107047;28;20929;-48
2022/08/07 11:41:38;;;;;;;3.03;1.92;;;;;;;;;;5106056;28;20507;-43
2022/08/07 11:44:17;;;;;;;3.20;0.65;;;;;;;;;;5106486;28;20459;-45
2022/08/07 11:47:03;;;;;;;0.95;0.80;;;;;;;;;;5105811;28;20044;-44
2022/08/07 11:49:44;;;;;;;1.55;0.98;;;;;;;;;;5106046;28;20040;-44
2022/08/07 11:52:27;;;;;;;6.85;1.70;;;;;;;;;;5101821;28;20399;-48
2022/08/07 11:54:59;;;;;;;6.05;1.00;;;;;;;;;;5106431;28;20042;-45
2022/08/07 11:57:41;;;;;;;2.85;0.75;;;;;;;;;;5103050;28;20071;-45
2022/08/07 12:00:11;;;;;;;3.90;2.15;;;;;;;;;;5102936;28;20036;-50
2022/08/07 12:02:55;;;;;;;1.20;0.82;;;;;;;;;;5105432;28;20517;-45
2022/08/07 12:05:41;;;;;;;4.50;1.42;;;;;;;;;;5104838;28;20811;-47
2022/08/07 12:08:13;;;;;;;1.70;0.82;;;;;;;;;;5104836;28;20495;-49
2022/08/07 12:10:40;;;;;;;2.28;0.80;;;;;;;;;;5103250;28;20040;-49
2022/08/07 12:13:19;;;;;;;1.50;0.80;;;;;;;;;;5104378;28;20032;-51
2022/08/07 12:15:49;;;;;;;2.33;1.25;;;;;;;;;;5103307;28;20104;-48
2022/08/07 12:18:17;;;;;;;4.70;1.13;;;;;;;;;;5103373;28;20085;-49
2022/08/07 12:21:01;;;;;;;0.57;0.40;;;;;;;;;;5084124;28;20048;-46
2022/08/07 12:23:45;;;;;;;0.63;0.43;;;;;;;;;;5102256;28;20050;-47
2022/08/07 12:26:18;;;;;;;1.05;0.57;;;;;;;;;;5102379;28;20045;-49
2022/08/07 12:29:06;;;;;;;2.63;1.60;;;;;;;;;;5102657;28;20494;-45
2022/08/07 12:31:42;;;;;;;1.92;0.90;;;;;;;;;;5087899;28;20134;-50
2022/08/07 12:34:09;;;;;;;1.55;1.10;;;;;;;;;;5102036;28;20043;-50
2022/08/07 12:36:35;;;;;;;1.02;0.77;;;;;;;;;;5104035;28;20046;-52
2022/08/07 12:39:02;;;;;;;0.73;0.57;;;;;;;;;;5103287;28;20445;-46
2022/08/07 12:41:28;;;;;;;1.17;0.38;;;;;;;;;;5102689;28;20059;-50
2022/08/07 12:43:54;;;;;;;2.53;1.23;;;;;;;;;;5101816;28;20048;-50
2022/08/07 12:46:38;;;;;;;1.80;1.27;;;;;;;;;;5104155;28;20873;-49
2022/08/07 12:49:10;;;;;;;4.10;1.45;;;;;;;;;;5105294;28;20044;-49
2022/08/07 12:51:42;;;;;;;1.67;1.02;;;;;;;;;;5105796;28;20188;-52
2022/08/07 12:54:10;;;;;;;1.23;1.10;;;;;;;;;;5102780;28;20040;-47
2022/08/07 12:56:43;;;;;;;1.17;0.52;;;;;;;;;;5102647;28;20059;-49
2022/08/07 12:59:11;;;;;;;2.60;1.15;;;;;;;;;;5104343;28;20051;-48
2022/08/07 13:01:36;;;;;;;1.15;0.80;;;;;;;;;;5105574;28;20042;-49
2022/08/07 13:04:20;;;;;;;8.00;0.85;;;;;;;;;;5105543;28;20708;-47
2022/08/07 13:06:51;;;;;;;1.40;0.88;;;;;;;;;;5103441;28;20044;-49
2022/08/07 13:09:17;;;;;;;1.20;0.80;;;;;;;;;;5104304;28;20104;-52
2022/08/07 13:11:56;;;;;;;1.45;0.90;;;;;;;;;;5105351;28;20452;-45
2022/08/07 13:14:29;;;;;;;1.88;0.90;;;;;;;;;;5104280;28;20067;-49
2022/08/07 13:17:02;;;;;;;1.63;1.15;;;;;;;;;;5105137;28;20067;-47
2022/08/07 13:19:46;;;;;;;1.85;1.05;;;;;;;;;;5104904;28;20288;-48
2022/08/07 13:22:18;;;;;;;8.93;1.60;;;;;;;;;;5103605;28;20197;-49
2022/08/07 13:24:48;;;;;;;1.75;0.90;;;;;;;;;;5103955;28;20046;-49
2022/08/07 13:27:17;;;;;;;1.50;0.85;;;;;;;;;;5103902;28;20124;-48
2022/08/07 13:29:55;;;;;;;2.03;0.88;;;;;;;;;;5103748;28;20205;-50
2022/08/07 13:32:34;;;;;;;1.75;1.15;;;;;;;;;;5102360;28;20144;-48
2022/08/07 13:35:05;;;;;;;2.85;1.23;;;;;;;;;;5106441;28;20054;-49
2022/08/07 13:37:50;;;;;;;2.58;1.52;;;;;;;;;;5108848;28;20058;-49
2022/08/07 13:40:21;;;;;;;2.65;0.80;;;;;;;;;;5109922;28;20054;-51
2022/08/07 13:42:51;;;;;;;1.05;0.52;;;;;;;;;;5108023;28;20055;-44
2022/08/07 13:45:18;;;;;;;1.88;1.30;;;;;;;;;;5104959;28;20119;-50
2022/08/07 13:47:44;;;;;;;3.40;1.05;;;;;;;;;;5104433;28;20146;-50
2022/08/07 13:50:12;;;;;;;1.35;0.95;;;;;;;;;;5108461;28;20118;-47
2022/08/07 13:52:40;;;;;;;2.42;0.77;;;;;;;;;;5108562;28;20055;-51
2022/08/07 13:55:10;;;;;;;1.92;1.30;;;;;;;;;;5109472;28;20032;-49
2022/08/07 13:57:37;;;;;;;5.75;1.90;;;;;;;;;;5106416;28;20063;-51
2022/08/07 14:00:05;;;;;;;10.15;1.88;;;;;;;;;;5106270;28;20039;-49
2022/08/07 14:02:32;;;;;;;1.45;1.15;;;;;;;;;;5108406;28;20066;-47
2022/08/07 14:05:00;;;;;;;1.85;1.02;;;;;;;;;;5107296;28;20048;-48
2022/08/07 14:07:30;;;;;;;1.90;1.10;;;;;;;;;;5108079;28;20068;-52
2022/08/07 14:09:59;;;;;;;2.20;1.48;;;;;;;;;;5108881;28;20044;-48
2022/08/07 14:12:47;;;;;;;4.13;1.30;;;;;;;;;;5107019;27;20055;-48
2022/08/07 14:15:41;;;;;;;3.22;1.63;;;;;;;;;;5106551;28;20090;-48
2022/08/07 14:18:12;;;;;;;2.25;1.15;;;;;;;;;;5086679;28;20043;-51
2022/08/07 14:20:40;;;;;;;1.27;0.60;;;;;;;;;;5108556;28;20058;-48
2022/08/07 14:23:13;;;;;;;14.82;1.15;;;;;;;;;;5109387;28;20103;-50
2022/08/07 14:25:39;;;;;;;2.10;0.80;;;;;;;;;;5108217;28;20126;-47
2022/08/07 14:28:07;;;;;;;1.35;1.08;;;;;;;;;;5108561;28;20108;-50
2022/08/07 14:30:33;;;;;;;2.45;0.95;;;;;;;;;;5109540;28;20130;-45
2022/08/07 14:33:03;;;;;;;1.75;0.77;;;;;;;;;;5108648;28;20039;-48
2022/08/07 14:35:30;;;;;;;1.65;0.80;;;;;;;;;;5106798;28;20205;-51
2022/08/07 14:37:56;;;;;;;7.35;1.33;;;;;;;;;;5108219;28;20486;-50
2022/08/07 14:40:23;;;;;;;1.38;0.70;;;;;;;;;;5106751;28;20085;-46
2022/08/07 14:42:57;;;;;;;1.20;0.70;;;;;;;;;;5108622;28;20202;-49
2022/08/07 14:45:29;;;;;;;1.17;0.82;;;;;;;;;;5107159;28;20134;-47
2022/08/07 14:47:55;;;;;;;0.95;0.52;;;;;;;;;;5107405;28;20066;-47
2022/08/07 14:50:22;;;;;;;2.17;1.27;;;;;;;;;;5107272;28;20044;-48
2022/08/07 14:52:48;;;;;;;4.28;1.65;;;;;;;;;;5108455;28;20047;-48
2022/08/07 14:55:15;;;;;;;3.28;1.00;;;;;;;;;;5107583;28;20097;-49
2022/08/07 14:57:41;;;;;;;2.38;0.90;;;;;;;;;;5105482;28;20059;-48
2022/08/07 15:00:08;;;;;;;2.72;0.50;;;;;;;;;;5106737;28;20150;-46
2022/08/07 15:02:35;;;;;;;1.52;0.70;;;;;;;;;;5106751;28;20356;-49